createdAt,value
2022-10-22T00:02:22.269Z,73.36
2022-10-22T00:04:50.169Z,73.82
2022-10-22T00:07:19.138Z,73.71
2022-10-22T00:09:46.494Z,73.13
2022-10-22T00:12:14.982Z,72.84
2022-10-22T00:14:42.880Z,73.02
2022-10-22T00:17:11.594Z,72.85
2022-10-22T00:19:39.638Z,72.76
2022-10-22T00:22:08.042Z,72.95
2022-10-22T00:24:37.926Z,72.90
2022-10-22T00:27:06.387Z,72.19
2022-10-22T00:29:33.808Z,72.43
2022-10-22T00:32:01.076Z,72.84
2022-10-22T00:34:28.764Z,71.97
2022-10-22T00:36:56.170Z,72.50
2022-10-22T00:39:25.102Z,72.38
2022-10-22T00:41:53.711Z,72.14
2022-10-22T00:45:00.772Z,72.83
2022-10-22T00:47:32.045Z,72.66
2022-10-22T00:50:00.579Z,72.70
2022-10-22T00:52:28.605Z,73.63
2022-10-22T00:54:55.704Z,73.11
2022-10-22T00:57:23.073Z,73.83
2022-10-22T00:59:50.111Z,73.64
2022-10-22T01:02:17.443Z,74.05
2022-10-22T01:04:45.176Z,73.68
2022-10-22T01:07:18.884Z,73.93
2022-10-22T01:10:13.451Z,74.51
2022-10-22T01:12:40.566Z,74.50
2022-10-22T01:15:29.633Z,74.78
2022-10-22T01:18:10.956Z,74.78
2022-10-22T01:20:37.743Z,75.40
2022-10-22T01:23:26.625Z,75.54
2022-10-22T01:29:07.504Z,75.51
2022-10-22T01:31:46.787Z,75.01
2022-10-22T01:34:18.452Z,75.31
2022-10-22T01:36:46.995Z,75.32
2022-10-22T01:39:16.464Z,75.28
2022-10-22T01:41:44.884Z,75.82
2022-10-22T01:44:29.857Z,76.17
2022-10-22T01:47:14.157Z,76.03
2022-10-22T01:50:06.725Z,76.41
2022-10-22T01:53:07.198Z,75.64
2022-10-22T01:55:43.690Z,75.60
2022-10-22T01:58:19.499Z,75.70
2022-10-22T02:01:00.696Z,75.87
2022-10-22T02:03:45.576Z,75.68
2022-10-22T02:06:19.121Z,75.74
2022-10-22T02:08:48.948Z,76.26
2022-10-22T02:11:16.820Z,76.42
2022-10-22T02:13:48.427Z,76.62
2022-10-22T02:16:30.585Z,77.05
2022-10-22T02:19:06.181Z,77.23
2022-10-22T02:21:33.120Z,77.02
2022-10-22T02:24:00.666Z,77.08
2022-10-22T02:26:39.991Z,77.14
2022-10-22T02:29:20.421Z,77.25
2022-10-22T02:31:51.444Z,77.25
2022-10-22T02:34:24.302Z,77.58
2022-10-22T02:36:52.568Z,77.72
2022-10-22T02:39:20.953Z,78.04
2022-10-22T02:41:48.519Z,77.34
2022-10-22T02:44:15.269Z,77.82
2022-10-22T02:46:43.681Z,78.01
2022-10-22T02:49:10.464Z,77.79
2022-10-22T02:51:37.371Z,78.81
2022-10-22T02:54:04.491Z,78.91
2022-10-22T02:56:31.490Z,78.76
2022-10-22T02:58:58.241Z,78.68
2022-10-22T03:01:25.311Z,78.73
2022-10-22T03:03:52.162Z,79.25
2022-10-22T03:06:19.247Z,79.26
2022-10-22T03:08:47.018Z,78.61
2022-10-22T03:11:13.803Z,78.87
2022-10-22T03:13:40.814Z,78.75
2022-10-22T03:16:07.732Z,79.78
2022-10-22T03:18:34.562Z,79.41
2022-10-22T03:21:49.074Z,78.74
2022-10-22T03:24:21.822Z,79.58
2022-10-22T03:26:50.502Z,79.37
2022-10-22T03:29:17.672Z,80.10
2022-10-22T03:31:44.490Z,79.69
2022-10-22T03:34:11.234Z,79.46
2022-10-22T03:36:38.684Z,79.22
2022-10-22T03:39:06.415Z,79.77
2022-10-22T03:41:34.071Z,79.14
2022-10-22T03:44:03.060Z,79.09
2022-10-22T03:46:29.935Z,79.20
2022-10-22T03:48:56.987Z,80.12
2022-10-22T03:51:26.157Z,79.91
2022-10-22T03:53:53.056Z,79.86
2022-10-22T03:56:20.063Z,78.72
2022-10-22T03:58:46.917Z,78.15
2022-10-22T04:01:15.000Z,77.84
2022-10-22T04:03:41.806Z,79.63
2022-10-22T04:06:11.087Z,80.37
2022-10-22T04:08:40.285Z,80.71
2022-10-22T04:11:07.734Z,80.30
2022-10-22T04:13:35.086Z,79.66
2022-10-22T04:16:07.880Z,79.68
2022-10-22T04:18:34.775Z,79.38
2022-10-22T04:21:01.989Z,81.04
2022-10-22T04:23:28.867Z,80.62
2022-10-22T04:26:05.208Z,81.59
2022-10-22T04:28:32.341Z,82.24
2022-10-22T04:30:59.088Z,81.20
2022-10-22T04:33:26.027Z,80.56
2022-10-22T04:35:52.826Z,83.00
2022-10-22T04:38:19.711Z,82.17
2022-10-22T04:40:46.543Z,83.15
2022-10-22T04:43:13.351Z,83.81
2022-10-22T04:45:40.150Z,82.07
2022-10-22T04:48:07.237Z,83.43
2022-10-22T04:50:34.167Z,83.45
2022-10-22T04:53:01.760Z,81.48
2022-10-22T04:55:28.462Z,83.04
2022-10-22T04:57:55.223Z,83.52
2022-10-22T05:00:21.973Z,82.82
2022-10-22T05:02:50.070Z,84.04
2022-10-22T05:05:16.970Z,84.34
2022-10-22T05:07:44.036Z,83.30
2022-10-22T05:10:11.010Z,82.73
2022-10-22T05:12:37.810Z,82.21
2022-10-22T05:15:04.824Z,83.41
2022-10-22T05:17:31.583Z,83.57
2022-10-22T05:19:58.375Z,83.68
2022-10-22T05:22:25.269Z,83.39
2022-10-22T05:24:52.059Z,83.30
2022-10-22T05:29:50.496Z,83.74
2022-10-22T05:32:17.359Z,84.83
2022-10-22T05:34:44.143Z,83.68
2022-10-22T05:37:11.183Z,83.03
2022-10-22T05:39:37.924Z,84.36
2022-10-22T05:42:04.924Z,83.70
2022-10-22T05:44:31.699Z,82.50
2022-10-22T05:46:58.566Z,82.73
2022-10-22T05:49:25.333Z,83.70
2022-10-22T05:51:52.155Z,83.73
2022-10-22T05:54:20.764Z,83.74
2022-10-22T05:56:48.185Z,83.83
2022-10-22T05:59:15.415Z,84.07
2022-10-22T06:01:43.177Z,84.36
2022-10-22T06:04:12.388Z,83.39
2022-10-22T06:06:46.635Z,83.74
2022-10-22T06:09:20.263Z,83.12
2022-10-22T06:11:47.917Z,82.89
2022-10-22T06:14:15.318Z,82.52
2022-10-22T06:16:42.105Z,81.60
2022-10-22T06:19:14.050Z,81.26
2022-10-22T06:21:40.817Z,81.13
2022-10-22T06:24:09.278Z,82.00
2022-10-22T06:26:36.056Z,81.96
2022-10-22T06:29:03.273Z,81.35
2022-10-22T06:31:31.152Z,80.96
2022-10-22T06:33:58.039Z,80.21
2022-10-22T06:36:24.906Z,80.52
2022-10-22T06:38:53.741Z,79.95
2022-10-22T06:41:23.038Z,79.65
2022-10-22T06:43:54.187Z,79.38
2022-10-22T06:46:22.285Z,79.08
2022-10-22T06:48:51.496Z,78.65
2022-10-22T06:51:19.304Z,78.07
2022-10-22T06:53:46.121Z,77.36
2022-10-22T06:56:19.878Z,77.19
2022-10-22T06:58:48.176Z,77.54
2022-10-22T07:01:17.269Z,77.83
2022-10-22T07:03:44.100Z,77.84
2022-10-22T07:06:13.493Z,78.36
2022-10-22T07:08:41.584Z,77.46
2022-10-22T07:11:14.504Z,76.95
2022-10-22T07:13:41.649Z,76.43
2022-10-22T07:16:09.763Z,76.40
2022-10-22T07:18:39.026Z,76.14
2022-10-22T07:21:07.051Z,76.23
2022-10-22T07:23:34.364Z,75.92
2022-10-22T07:26:01.699Z,75.31
2022-10-22T07:28:29.037Z,75.41
2022-10-22T07:30:55.839Z,75.79
2022-10-22T07:33:22.661Z,76.16
2022-10-22T07:35:49.403Z,75.89
2022-10-22T07:38:16.244Z,76.15
2022-10-22T07:40:43.171Z,76.11
2022-10-22T07:43:09.977Z,76.48
2022-10-22T07:45:36.845Z,76.48
2022-10-22T07:48:03.803Z,77.33
2022-10-22T07:50:30.647Z,77.29
2022-10-22T07:52:58.331Z,77.72
2022-10-22T07:55:26.093Z,77.14
2022-10-22T07:57:53.223Z,77.82
2022-10-22T08:00:23.057Z,75.85
2022-10-22T08:02:52.240Z,76.27
2022-10-22T08:05:19.386Z,75.92
2022-10-22T08:07:46.316Z,76.21
2022-10-22T08:10:13.568Z,76.39
2022-10-22T08:12:42.163Z,76.24
2022-10-22T08:15:10.184Z,76.50
2022-10-22T08:17:37.092Z,76.37
2022-10-22T08:20:04.761Z,76.45
2022-10-22T08:22:31.599Z,76.61
2022-10-22T08:24:58.415Z,76.53
2022-10-22T08:27:25.175Z,76.18
2022-10-22T08:29:51.982Z,76.56
2022-10-22T08:32:18.847Z,76.89
2022-10-22T08:34:45.637Z,76.91
2022-10-22T08:37:13.226Z,76.83
2022-10-22T08:39:41.277Z,76.87
2022-10-22T08:42:29.758Z,77.32
2022-10-22T08:45:06.767Z,77.60
2022-10-22T08:47:59.946Z,78.39
2022-10-22T08:50:38.646Z,80.76
2022-10-22T08:53:15.571Z,79.44
2022-10-22T08:55:42.649Z,80.72
2022-10-22T08:58:30.411Z,81.49
2022-10-22T09:01:01.792Z,82.18
2022-10-22T09:03:38.338Z,83.93
2022-10-22T09:06:07.845Z,84.13
2022-10-22T09:08:37.315Z,84.43
2022-10-22T09:11:12.497Z,84.98
2022-10-22T09:13:42.539Z,85.35
2022-10-22T09:16:17.981Z,86.72
2022-10-22T09:19:23.049Z,88.93
2022-10-22T09:22:15.181Z,88.52
2022-10-22T09:24:52.470Z,88.91
2022-10-22T09:27:30.638Z,87.89
2022-10-22T09:29:57.776Z,88.36
2022-10-22T09:32:26.390Z,90.70
2022-10-22T09:34:57.033Z,88.45
2022-10-22T09:37:28.153Z,88.08
2022-10-22T09:39:57.428Z,87.34
2022-10-22T09:42:24.825Z,87.90
2022-10-22T09:44:59.761Z,88.04
2022-10-22T09:47:42.954Z,91.21
2022-10-22T09:50:41.569Z,89.84
2022-10-22T09:53:29.077Z,90.24
2022-10-22T09:55:59.062Z,88.79
2022-10-22T09:58:26.787Z,90.27
2022-10-22T10:01:00.054Z,91.57
2022-10-22T10:03:31.866Z,90.32
2022-10-22T10:06:04.796Z,90.21
2022-10-22T10:08:33.661Z,90.03
2022-10-22T10:11:07.836Z,89.54
2022-10-22T10:13:52.880Z,89.75
2022-10-22T10:16:47.665Z,89.47
2022-10-22T10:19:36.060Z,89.79
2022-10-22T10:22:21.331Z,89.07
2022-10-22T10:25:10.286Z,88.67
2022-10-22T10:28:10.725Z,88.60
2022-10-22T10:30:48.719Z,88.91
2022-10-22T10:33:31.466Z,89.19
2022-10-22T10:36:17.656Z,90.17
2022-10-22T10:39:03.553Z,89.63
2022-10-22T10:41:49.022Z,88.94
2022-10-22T10:44:31.987Z,88.58
2022-10-22T10:47:16.194Z,88.30
2022-10-22T10:49:43.714Z,90.79
2022-10-22T10:52:30.812Z,90.30
2022-10-22T10:55:25.316Z,90.03
2022-10-22T10:57:54.846Z,90.27
2022-10-22T11:00:22.498Z,90.51
2022-10-22T11:03:26.747Z,90.24
2022-10-22T11:05:57.978Z,89.29
2022-10-22T11:08:43.972Z,90.40
2022-10-22T11:11:33.132Z,89.78
2022-10-22T11:14:11.449Z,89.66
2022-10-22T11:16:57.779Z,90.21
2022-10-22T11:19:50.112Z,90.09
2022-10-22T11:23:00.245Z,89.87
2022-10-22T11:25:40.861Z,89.21
2022-10-22T11:28:22.762Z,90.12
2022-10-22T11:31:00.358Z,91.32
2022-10-22T11:33:33.229Z,89.74
2022-10-22T11:36:02.955Z,89.25
2022-10-22T11:38:32.813Z,90.16
2022-10-22T11:41:12.321Z,89.80
2022-10-22T11:43:55.561Z,90.41
2022-10-22T11:46:22.382Z,89.04
2022-10-22T11:49:13.770Z,89.39
2022-10-22T11:51:42.430Z,90.59
2022-10-22T11:54:24.191Z,88.77
2022-10-22T11:57:16.334Z,85.30
2022-10-22T11:59:43.082Z,83.91
2022-10-22T12:02:43.780Z,82.31
2022-10-22T12:05:22.874Z,81.10
2022-10-22T12:08:15.918Z,80.45
2022-10-22T12:10:57.622Z,79.69
2022-10-22T12:13:28.076Z,79.31
2022-10-22T12:15:59.304Z,79.01
2022-10-22T12:18:31.498Z,79.08
2022-10-22T12:20:58.432Z,78.50
2022-10-22T12:23:32.154Z,78.15
2022-10-22T12:25:58.923Z,78.15
2022-10-22T12:28:25.746Z,78.32
2022-10-22T12:30:52.507Z,77.56
2022-10-22T12:33:22.185Z,77.95
2022-10-22T12:35:50.700Z,78.00
2022-10-22T12:38:21.361Z,77.29
2022-10-22T12:40:50.537Z,76.30
2022-10-22T12:43:20.317Z,76.58
2022-10-22T12:45:50.487Z,76.15
2022-10-22T12:48:40.260Z,74.94
2022-10-22T12:51:09.155Z,74.38
2022-10-22T12:53:38.488Z,75.37
2022-10-22T12:56:13.410Z,74.79
2022-10-22T12:58:43.468Z,74.78
2022-10-22T13:01:15.883Z,74.03
2022-10-22T13:03:48.697Z,73.96
2022-10-22T13:06:18.706Z,74.00
2022-10-22T13:08:55.566Z,73.81
2022-10-22T13:11:22.555Z,72.95
2022-10-22T13:13:49.330Z,73.51
2022-10-22T13:16:22.717Z,72.44
2022-10-22T13:18:51.402Z,71.99
2022-10-22T13:21:38.621Z,72.26
2022-10-22T13:24:23.350Z,72.59
2022-10-22T13:26:53.143Z,72.89
2022-10-22T13:29:22.607Z,73.14
2022-10-22T13:31:52.271Z,72.80
2022-10-22T13:34:25.066Z,74.00
2022-10-22T13:36:52.201Z,73.94
2022-10-22T13:39:21.872Z,73.56
2022-10-22T13:41:49.774Z,73.57
2022-10-22T13:44:17.900Z,74.05
2022-10-22T13:46:45.833Z,74.09
2022-10-22T13:49:19.032Z,74.18
2022-10-22T13:51:46.808Z,73.97
2022-10-22T13:54:18.043Z,74.19
2022-10-22T13:56:45.893Z,74.03
2022-10-22T13:59:13.131Z,74.17
2022-10-22T14:01:40.752Z,74.73
2022-10-22T14:04:12.562Z,73.92
2022-10-22T14:06:40.073Z,74.13
2022-10-22T14:09:13.896Z,74.18
2022-10-22T14:11:40.995Z,74.07
2022-10-22T14:14:07.895Z,74.57
2022-10-22T14:16:35.285Z,74.41
2022-10-22T14:19:02.794Z,74.83
2022-10-22T14:21:35.106Z,74.73
2022-10-22T14:24:02.166Z,74.80
2022-10-22T14:26:32.138Z,75.02
2022-10-22T14:29:15.422Z,74.58
2022-10-22T14:31:44.592Z,74.74
2022-10-22T14:34:14.408Z,73.54
2022-10-22T14:36:41.810Z,74.36
2022-10-22T14:39:08.936Z,73.67
2022-10-22T14:41:37.170Z,73.50
2022-10-22T14:44:04.296Z,73.46
2022-10-22T14:46:31.179Z,73.73
2022-10-22T14:48:58.337Z,73.73
2022-10-22T14:51:25.271Z,73.36
2022-10-22T14:53:52.209Z,73.81
2022-10-22T14:56:20.118Z,74.25
2022-10-22T14:58:47.350Z,74.25
2022-10-22T15:01:14.393Z,74.73
2022-10-22T15:03:41.352Z,74.41
2022-10-22T15:06:08.190Z,74.66
2022-10-22T15:08:35.185Z,74.73
2022-10-22T15:11:05.386Z,75.92
2022-10-22T15:13:33.054Z,75.05
2022-10-22T15:16:00.491Z,75.11
2022-10-22T15:18:29.074Z,75.56
2022-10-22T15:21:01.483Z,75.64
2022-10-22T15:23:29.254Z,76.20
2022-10-22T15:25:56.866Z,76.09
2022-10-22T15:28:24.569Z,76.68
2022-10-22T15:30:59.733Z,75.96
2022-10-22T15:33:28.626Z,76.09
2022-10-22T15:35:56.771Z,76.54
2022-10-22T15:41:05.291Z,76.60
2022-10-22T15:43:34.841Z,76.71
2022-10-22T15:46:16.797Z,77.10
2022-10-22T15:48:45.063Z,76.44
2022-10-22T15:51:14.949Z,76.50
2022-10-22T15:53:43.055Z,76.38
2022-10-22T15:56:11.268Z,76.08
2022-10-22T15:58:39.021Z,75.75
2022-10-22T16:01:12.501Z,76.09
2022-10-22T16:03:40.239Z,76.35
2022-10-22T16:06:08.508Z,75.68
2022-10-22T16:08:35.450Z,76.08
2022-10-22T16:11:02.549Z,75.34
2022-10-22T16:13:29.430Z,75.69
2022-10-22T16:15:56.470Z,75.19
2022-10-22T16:18:23.811Z,75.54
2022-10-22T16:20:50.692Z,75.36
2022-10-22T16:23:20.023Z,74.75
2022-10-22T16:25:46.955Z,74.51
2022-10-22T16:28:14.246Z,74.92
2022-10-22T16:30:41.257Z,74.90
2022-10-22T16:33:10.082Z,74.68
2022-10-22T16:35:42.503Z,74.31
2022-10-22T16:38:11.303Z,74.59
2022-10-22T16:40:38.412Z,74.54
2022-10-22T16:43:05.739Z,74.10
2022-10-22T16:45:32.972Z,73.99
2022-10-22T16:47:59.874Z,74.06
2022-10-22T16:50:27.238Z,74.24
2022-10-22T16:52:54.695Z,74.09
2022-10-22T16:55:21.845Z,74.67
2022-10-22T16:57:52.344Z,74.72
2022-10-22T17:00:21.252Z,74.27
2022-10-22T17:02:53.981Z,74.50
2022-10-22T17:05:21.846Z,74.55
2022-10-22T17:07:49.847Z,75.00
2022-10-22T17:10:18.888Z,75.08
2022-10-22T17:12:48.016Z,75.22
2022-10-22T17:15:15.878Z,74.92
2022-10-22T17:17:43.225Z,75.07
2022-10-22T17:20:12.179Z,75.30
2022-10-22T17:22:40.048Z,75.35
2022-10-22T17:25:25.803Z,75.45
2022-10-22T17:27:53.974Z,75.99
2022-10-22T17:30:24.985Z,76.16
2022-10-22T17:32:55.696Z,76.21
2022-10-22T17:35:23.293Z,76.12
2022-10-22T17:37:52.351Z,76.21
2022-10-22T17:40:21.875Z,76.47
2022-10-22T17:42:49.380Z,76.85
2022-10-22T17:45:17.262Z,76.91
2022-10-22T17:47:45.080Z,77.04
2022-10-22T17:50:12.742Z,77.59
2022-10-22T17:52:40.456Z,77.46
2022-10-22T17:55:12.873Z,77.92
2022-10-22T17:57:40.934Z,78.00
2022-10-22T18:00:10.206Z,78.04
2022-10-22T18:02:37.873Z,78.22
2022-10-22T18:05:05.523Z,78.71
2022-10-22T18:07:32.651Z,78.35
2022-10-22T18:09:59.923Z,78.92
2022-10-22T18:12:27.221Z,78.91
2022-10-22T18:14:57.123Z,79.29
2022-10-22T18:17:26.760Z,79.46
2022-10-22T18:19:55.623Z,79.90
2022-10-22T18:22:23.324Z,79.60
2022-10-22T18:24:50.844Z,80.19
2022-10-22T18:27:19.722Z,80.30
2022-10-22T18:29:50.385Z,79.87
2022-10-22T18:32:18.949Z,80.23
2022-10-22T18:34:46.379Z,79.82
2022-10-22T18:37:13.919Z,80.30
2022-10-22T18:39:43.465Z,80.50
2022-10-22T18:42:11.258Z,80.47
2022-10-22T18:44:38.619Z,80.52
2022-10-22T18:47:07.118Z,80.65
2022-10-22T18:49:34.950Z,80.53
2022-10-22T18:52:03.186Z,80.44
2022-10-22T18:54:31.136Z,80.74
2022-10-22T18:57:02.571Z,81.09
2022-10-22T18:59:31.227Z,80.83
2022-10-22T19:01:59.005Z,80.93
2022-10-22T19:04:29.298Z,80.66
2022-10-22T19:06:57.291Z,80.53
2022-10-22T19:09:26.499Z,80.69
2022-10-22T19:11:53.997Z,80.82
2022-10-22T19:14:21.046Z,80.78
2022-10-22T19:16:49.095Z,80.74
2022-10-22T19:19:19.485Z,80.42
2022-10-22T19:21:47.197Z,80.49
2022-10-22T19:24:16.999Z,80.38
2022-10-22T19:26:45.727Z,80.06
2022-10-22T19:29:16.321Z,79.66
2022-10-22T19:31:43.934Z,79.83
2022-10-22T19:34:12.149Z,79.63
2022-10-22T19:36:39.975Z,79.55
2022-10-22T19:39:07.391Z,79.36
2022-10-22T19:41:35.261Z,79.12
2022-10-22T19:44:02.905Z,79.15
2022-10-22T19:46:32.112Z,78.59
2022-10-22T19:49:00.098Z,78.11
2022-10-22T19:51:30.083Z,78.21
2022-10-22T19:54:06.514Z,77.92
2022-10-22T19:56:35.859Z,78.13
2022-10-22T19:59:05.000Z,77.58
2022-10-22T20:01:32.405Z,77.41
2022-10-22T20:03:59.453Z,77.56
2022-10-22T20:06:27.329Z,77.64
2022-10-22T20:08:56.159Z,77.46
2022-10-22T20:11:27.692Z,77.67
2022-10-22T20:13:56.134Z,77.34
2022-10-22T20:16:25.723Z,77.24
2022-10-22T20:18:52.905Z,77.40
2022-10-22T20:21:20.497Z,77.14
2022-10-22T20:23:53.466Z,77.38
2022-10-22T20:26:21.534Z,77.06
2022-10-22T20:28:48.655Z,76.85
2022-10-22T20:31:19.283Z,76.87
2022-10-22T20:33:47.873Z,76.86
2022-10-22T20:36:21.024Z,77.09
2022-10-22T20:38:48.319Z,77.12
2022-10-22T20:41:22.265Z,77.32
2022-10-22T20:43:51.706Z,77.23
2022-10-22T20:46:26.202Z,76.88
2022-10-22T20:48:58.532Z,77.06
2022-10-22T20:51:25.963Z,76.96
2022-10-22T20:53:53.318Z,76.92
2022-10-22T20:56:21.306Z,77.36
2022-10-22T20:58:50.113Z,77.01
2022-10-22T21:01:21.842Z,77.20
2022-10-22T21:03:51.423Z,77.26
2022-10-22T21:06:20.230Z,77.24
2022-10-22T21:08:47.161Z,77.20
2022-10-22T21:11:14.166Z,77.24
2022-10-22T21:13:41.036Z,77.63
2022-10-22T21:16:10.688Z,77.71
2022-10-22T21:18:37.835Z,77.90
2022-10-22T21:21:06.147Z,77.96
2022-10-22T21:23:35.316Z,78.20
2022-10-22T21:26:02.470Z,78.10
2022-10-22T21:30:57.416Z,78.99
2022-10-22T21:33:24.299Z,79.00
2022-10-22T21:35:53.220Z,79.24
2022-10-22T21:38:20.848Z,78.71
2022-10-22T21:40:47.858Z,78.99
2022-10-22T21:43:15.786Z,79.24
2022-10-22T21:45:43.129Z,79.41
2022-10-22T21:48:11.608Z,79.29
2022-10-22T21:50:40.236Z,79.61
2022-10-22T21:53:09.248Z,79.59
2022-10-22T21:55:40.692Z,79.40
2022-10-22T21:58:14.646Z,79.34
2022-10-22T22:00:54.356Z,79.69
2022-10-22T22:03:21.390Z,79.44
2022-10-22T22:05:48.383Z,79.65
2022-10-22T22:08:15.781Z,79.75
2022-10-22T22:10:43.287Z,80.01
2022-10-22T22:13:10.241Z,79.75
2022-10-22T22:15:37.040Z,80.03
2022-10-22T22:18:04.062Z,79.94
2022-10-22T22:20:30.863Z,80.07
2022-10-22T22:22:57.781Z,80.34
2022-10-22T22:25:24.503Z,79.93
2022-10-22T22:27:51.515Z,79.93
2022-10-22T22:30:18.234Z,80.03
2022-10-22T22:32:45.013Z,79.83
2022-10-22T22:35:11.832Z,79.77
2022-10-22T22:37:38.843Z,79.30
2022-10-22T22:40:06.423Z,79.28
2022-10-22T22:42:33.314Z,79.13
2022-10-22T22:45:00.114Z,78.75
2022-10-22T22:47:26.896Z,78.89
2022-10-22T22:49:53.806Z,78.83
2022-10-22T22:54:52.525Z,78.42
2022-10-22T22:57:19.256Z,78.50
2022-10-22T22:59:49.406Z,78.69
2022-10-22T23:02:16.374Z,78.71
2022-10-22T23:04:43.285Z,78.60
2022-10-22T23:07:10.467Z,78.67
2022-10-22T23:09:37.306Z,78.47
2022-10-22T23:12:04.307Z,78.63
2022-10-22T23:14:31.227Z,78.98
2022-10-22T23:16:57.973Z,79.44
2022-10-22T23:19:24.754Z,80.56
2022-10-22T23:21:54.392Z,81.85
2022-10-22T23:24:24.377Z,81.54
2022-10-22T23:26:53.357Z,81.87
2022-10-22T23:29:26.438Z,82.24
2022-10-22T23:31:54.535Z,81.34
2022-10-22T23:34:24.917Z,82.41
2022-10-22T23:36:52.001Z,82.01
2022-10-22T23:39:22.512Z,82.76
2022-10-22T23:41:49.610Z,83.10
2022-10-22T23:44:16.491Z,84.21
2022-10-22T23:46:43.788Z,83.23
2022-10-22T23:49:11.750Z,83.94
2022-10-22T23:51:40.091Z,83.90
2022-10-22T23:54:10.701Z,85.48
2022-10-22T23:56:38.340Z,86.27
2022-10-22T23:59:05.896Z,84.29
